createdAt,value
2022-08-01T00:00:54.580Z,69.29
2022-08-01T00:03:56.655Z,69.40
2022-08-01T00:06:58.715Z,69.45
2022-08-01T00:10:00.811Z,70.42
2022-08-01T00:13:02.898Z,70.51
2022-08-01T00:16:05.123Z,70.21
2022-08-01T00:19:07.278Z,69.75
2022-08-01T00:22:09.787Z,69.73
2022-08-01T00:25:11.999Z,70.21
2022-08-01T00:28:14.554Z,70.93
2022-08-01T00:31:16.664Z,70.04
2022-08-01T00:34:18.764Z,70.12
2022-08-01T00:37:20.926Z,70.14
2022-08-01T00:40:23.499Z,70.92
2022-08-01T00:43:25.636Z,70.15
2022-08-01T00:46:27.716Z,71.30
2022-08-01T00:49:29.825Z,72.42
2022-08-01T00:52:32.842Z,72.94
2022-08-01T00:55:34.950Z,72.65
2022-08-01T00:58:37.423Z,72.73
2022-08-01T01:01:40.431Z,73.73
2022-08-01T01:04:48.726Z,73.06
2022-08-01T01:08:13.228Z,73.32
2022-08-01T01:11:27.037Z,73.61
2022-08-01T01:15:09.459Z,74.75
2022-08-01T01:18:16.231Z,74.91
2022-08-01T01:21:18.251Z,74.65
2022-08-01T01:24:50.932Z,75.08
2022-08-01T01:28:09.690Z,75.35
2022-08-01T01:31:12.128Z,74.11
2022-08-01T01:34:15.030Z,74.12
2022-08-01T01:37:19.775Z,75.69
2022-08-01T01:40:23.303Z,75.11
2022-08-01T01:43:29.142Z,74.59
2022-08-01T01:46:35.944Z,73.92
2022-08-01T01:49:38.198Z,73.59
2022-08-01T01:52:41.125Z,73.46
2022-08-01T01:55:49.725Z,72.89
2022-08-01T01:58:57.582Z,73.05
2022-08-01T02:02:05.635Z,73.47
2022-08-01T02:05:10.231Z,73.88
2022-08-01T02:08:13.939Z,74.16
2022-08-01T02:11:23.074Z,74.32
2022-08-01T02:14:25.343Z,73.77
2022-08-01T02:17:27.483Z,73.14
2022-08-01T02:20:31.146Z,74.28
2022-08-01T02:23:34.801Z,73.18
2022-08-01T02:26:37.699Z,72.26
2022-08-01T02:29:59.503Z,72.16
2022-08-01T02:33:15.798Z,72.79
2022-08-01T02:36:30.324Z,72.39
2022-08-01T02:39:35.307Z,73.33
2022-08-01T02:42:37.899Z,73.27
2022-08-01T02:45:44.618Z,74.25
2022-08-01T02:48:46.878Z,73.54
2022-08-01T02:51:49.247Z,74.45
2022-08-01T02:54:52.679Z,72.66
2022-08-01T02:57:59.314Z,72.44
2022-08-01T03:01:03.334Z,73.86
2022-08-01T03:04:06.224Z,74.58
2022-08-01T03:07:10.407Z,74.84
2022-08-01T03:10:12.563Z,73.83
2022-08-01T03:13:14.761Z,74.86
2022-08-01T03:16:16.951Z,75.05
2022-08-01T03:19:19.538Z,75.36
2022-08-01T03:22:24.027Z,75.46
2022-08-01T03:25:26.154Z,74.76
2022-08-01T03:28:29.568Z,75.54
2022-08-01T03:31:31.848Z,75.44
2022-08-01T03:34:33.999Z,73.79
2022-08-01T03:38:06.302Z,75.21
2022-08-01T03:41:16.879Z,75.23
2022-08-01T03:44:21.879Z,74.68
2022-08-01T03:47:27.364Z,75.51
2022-08-01T03:50:30.918Z,75.53
2022-08-01T03:53:33.282Z,74.90
2022-08-01T03:56:35.398Z,76.44
2022-08-01T03:59:40.610Z,76.23
2022-08-01T04:02:42.786Z,76.04
2022-08-01T04:05:44.986Z,75.50
2022-08-01T04:08:56.544Z,76.28
2022-08-01T04:12:01.033Z,77.20
2022-08-01T04:15:11.098Z,77.49
2022-08-01T04:18:13.174Z,77.68
2022-08-01T04:21:15.533Z,78.27
2022-08-01T04:24:19.468Z,78.40
2022-08-01T04:27:48.486Z,78.84
2022-08-01T04:30:59.726Z,79.32
2022-08-01T04:34:05.875Z,79.74
2022-08-01T04:37:10.643Z,79.57
2022-08-01T04:40:15.243Z,79.89
2022-08-01T04:43:17.334Z,78.59
2022-08-01T04:46:19.527Z,76.46
2022-08-01T04:49:25.432Z,76.44
2022-08-01T04:52:38.092Z,77.12
2022-08-01T04:55:40.511Z,75.52
2022-08-01T04:58:43.234Z,75.91
2022-08-01T05:01:50.821Z,74.50
2022-08-01T05:04:52.924Z,73.28
2022-08-01T05:07:55.134Z,73.66
2022-08-01T05:10:57.207Z,71.61
2022-08-01T05:13:59.304Z,73.24
2022-08-01T05:17:04.887Z,72.91
2022-08-01T05:20:07.486Z,72.15
2022-08-01T05:23:10.983Z,74.11
2022-08-01T05:26:19.320Z,75.36
2022-08-01T05:29:21.379Z,72.61
2022-08-01T05:32:23.441Z,73.42
2022-08-01T05:35:48.097Z,73.15
2022-08-01T05:38:47.614Z,73.33
2022-08-01T05:41:49.688Z,71.74
2022-08-01T05:44:51.876Z,72.37
2022-08-01T05:47:54.139Z,73.97
2022-08-01T05:50:58.582Z,73.14
2022-08-01T05:54:01.119Z,71.85
2022-08-01T05:57:03.667Z,72.39
2022-08-01T06:00:06.892Z,71.51
2022-08-01T06:03:15.328Z,71.88
2022-08-01T06:06:17.706Z,72.03
2022-08-01T06:09:19.844Z,71.20
2022-08-01T06:12:21.916Z,71.45
2022-08-01T06:15:25.454Z,70.22
2022-08-01T06:18:27.620Z,70.67
2022-08-01T06:21:29.704Z,70.70
2022-08-01T06:24:31.922Z,71.55
2022-08-01T06:27:36.436Z,71.56
2022-08-01T06:30:38.522Z,71.28
2022-08-01T06:33:40.801Z,71.20
2022-08-01T06:36:42.867Z,70.83
2022-08-01T06:39:44.955Z,70.02
2022-08-01T06:42:47.648Z,71.41
2022-08-01T06:45:49.912Z,71.13
2022-08-01T06:48:52.007Z,71.50
2022-08-01T06:51:54.151Z,70.51
2022-08-01T06:54:56.223Z,70.95
2022-08-01T06:57:58.393Z,70.95
2022-08-01T07:01:00.517Z,71.27
2022-08-01T07:04:03.699Z,70.29
2022-08-01T07:07:05.861Z,69.97
2022-08-01T07:10:09.573Z,69.96
2022-08-01T07:13:13.240Z,69.18
2022-08-01T07:16:15.823Z,68.88
2022-08-01T07:19:18.211Z,69.11
2022-08-01T07:22:23.225Z,66.63
2022-08-01T07:25:25.791Z,66.25
2022-08-01T07:28:28.569Z,66.51
2022-08-01T07:31:32.514Z,64.92
2022-08-01T07:34:34.735Z,64.06
2022-08-01T07:37:44.287Z,65.17
2022-08-01T07:40:51.374Z,62.53
2022-08-01T07:43:58.002Z,61.18
2022-08-01T07:47:02.786Z,59.78
2022-08-01T07:50:06.872Z,60.55
2022-08-01T07:53:11.173Z,60.25
2022-08-01T07:56:13.229Z,58.74
2022-08-01T07:59:15.514Z,59.42
2022-08-01T08:02:28.289Z,59.38
2022-08-01T08:05:58.461Z,57.01
2022-08-01T08:08:54.479Z,56.95
2022-08-01T08:11:56.610Z,56.78
2022-08-01T08:15:02.105Z,57.13
2022-08-01T08:18:07.438Z,55.70
2022-08-01T08:21:09.523Z,55.90
2022-08-01T08:24:20.866Z,55.85
2022-08-01T08:27:29.076Z,55.61
2022-08-01T08:30:31.218Z,54.89
2022-08-01T08:33:33.514Z,55.56
2022-08-01T08:36:35.646Z,53.81
2022-08-01T08:39:41.854Z,53.88
2022-08-01T08:42:44.499Z,53.85
2022-08-01T08:45:58.928Z,53.82
2022-08-01T08:49:04.484Z,52.54
2022-08-01T08:52:09.267Z,53.46
2022-08-01T08:55:11.951Z,52.03
2022-08-01T08:58:14.463Z,51.28
2022-08-01T09:01:18.588Z,52.95
2022-08-01T09:04:26.091Z,54.42
2022-08-01T09:07:28.908Z,51.33
2022-08-01T09:10:30.983Z,51.80
2022-08-01T09:13:34.405Z,51.58
2022-08-01T09:16:37.782Z,50.77
2022-08-01T09:19:45.945Z,50.44
2022-08-01T09:22:48.093Z,50.40
2022-08-01T09:25:56.877Z,49.51
2022-08-01T09:29:06.440Z,49.01
2022-08-01T09:32:09.465Z,48.95
2022-08-01T09:35:30.745Z,47.75
2022-08-01T09:38:33.810Z,49.50
2022-08-01T09:41:37.565Z,46.71
2022-08-01T09:44:54.619Z,46.41
2022-08-01T09:47:57.529Z,46.28
2022-08-01T09:51:04.749Z,46.45
2022-08-01T09:54:11.395Z,48.88
2022-08-01T09:57:18.651Z,47.37
2022-08-01T10:00:43.801Z,47.93
2022-08-01T10:03:42.822Z,43.64
2022-08-01T10:06:53.514Z,44.83
2022-08-01T10:09:55.673Z,44.05
2022-08-01T10:12:59.782Z,44.74
2022-08-01T10:16:02.347Z,42.94
2022-08-01T10:19:10.997Z,44.76
2022-08-01T10:22:19.947Z,45.71
2022-08-01T10:25:42.709Z,47.17
2022-08-01T10:28:45.867Z,46.45
2022-08-01T10:31:50.342Z,45.66
2022-08-01T10:34:52.994Z,47.96
2022-08-01T10:37:59.051Z,45.86
2022-08-01T10:41:01.164Z,47.33
2022-08-01T10:44:09.354Z,48.32
2022-08-01T10:47:14.201Z,49.09
2022-08-01T10:50:32.723Z,48.11
2022-08-01T10:53:42.818Z,47.43
2022-08-01T10:56:50.539Z,48.37
2022-08-01T11:00:01.585Z,47.48
2022-08-01T11:03:04.719Z,48.09
2022-08-01T11:06:07.547Z,49.43
2022-08-01T11:09:38.970Z,46.45
2022-08-01T11:12:41.839Z,48.49
2022-08-01T11:15:50.141Z,49.79
2022-08-01T11:18:52.998Z,48.32
2022-08-01T11:22:01.597Z,48.88
2022-08-01T11:25:04.591Z,48.05
2022-08-01T11:28:28.224Z,47.37
2022-08-01T11:31:37.491Z,48.42
2022-08-01T11:34:58.888Z,48.81
2022-08-01T11:38:29.089Z,49.51
2022-08-01T11:41:37.242Z,49.28
2022-08-01T11:44:51.273Z,48.84
2022-08-01T11:47:53.539Z,50.35
2022-08-01T11:50:57.299Z,50.89
2022-08-01T11:53:59.995Z,49.77
2022-08-01T11:57:33.922Z,49.35
2022-08-01T12:00:38.238Z,48.46
2022-08-01T12:03:46.146Z,49.22
2022-08-01T12:06:48.373Z,48.02
2022-08-01T12:10:15.278Z,48.56
2022-08-01T12:13:21.748Z,47.35
2022-08-01T12:16:23.990Z,47.32
2022-08-01T12:19:37.529Z,46.37
2022-08-01T12:22:39.769Z,44.57
2022-08-01T12:25:48.312Z,42.91
2022-08-01T12:28:52.227Z,45.26
2022-08-01T12:31:54.789Z,46.07
2022-08-01T12:34:57.116Z,46.75
2022-08-01T12:38:14.411Z,47.32
2022-08-01T12:41:16.528Z,44.62
2022-08-01T12:44:18.652Z,42.45
2022-08-01T12:47:21.300Z,42.90
2022-08-01T12:50:24.917Z,40.26
2022-08-01T12:53:40.886Z,39.43
2022-08-01T12:56:43.504Z,42.47
2022-08-01T12:59:49.470Z,44.46
2022-08-01T13:03:15.398Z,44.80
2022-08-01T13:06:18.206Z,45.51
2022-08-01T13:09:20.586Z,42.77
2022-08-01T13:12:25.359Z,41.48
2022-08-01T13:15:33.138Z,40.29
2022-08-01T13:18:35.949Z,39.82
2022-08-01T13:21:52.498Z,40.25
2022-08-01T13:25:20.800Z,37.61
2022-08-01T13:28:28.364Z,41.07
2022-08-01T13:31:34.593Z,39.58
2022-08-01T13:34:36.728Z,38.41
2022-08-01T13:37:43.320Z,40.39
2022-08-01T13:40:45.408Z,40.75
2022-08-01T13:43:58.390Z,41.28
2022-08-01T13:47:02.378Z,42.86
2022-08-01T13:50:17.977Z,43.31
2022-08-01T13:53:20.105Z,41.84
2022-08-01T13:56:22.261Z,44.29
2022-08-01T13:59:24.351Z,44.44
2022-08-01T14:02:28.036Z,44.28
2022-08-01T14:05:30.960Z,44.80
2022-08-01T14:08:33.074Z,40.13
2022-08-01T14:11:37.195Z,42.22
2022-08-01T14:14:39.808Z,43.60
2022-08-01T14:17:47.631Z,44.14
2022-08-01T14:20:50.669Z,45.19
2022-08-01T14:23:55.986Z,46.61
2022-08-01T14:26:58.112Z,46.45
2022-08-01T14:30:03.774Z,45.98
2022-08-01T14:33:06.284Z,47.08
2022-08-01T14:36:31.053Z,49.14
2022-08-01T14:39:30.567Z,43.98
2022-08-01T14:42:32.691Z,45.43
2022-08-01T14:45:34.833Z,42.19
2022-08-01T14:48:37.042Z,48.07
2022-08-01T14:51:39.502Z,49.63
2022-08-01T14:54:41.584Z,50.54
2022-08-01T14:57:43.660Z,51.46
2022-08-01T15:00:46.414Z,51.95
2022-08-01T15:03:49.075Z,53.68
2022-08-01T15:06:51.186Z,54.27
2022-08-01T15:09:53.999Z,54.07
2022-08-01T15:12:56.688Z,55.19
2022-08-01T15:16:00.162Z,54.73
2022-08-01T15:19:02.488Z,53.57
2022-08-01T15:22:04.958Z,53.96
2022-08-01T15:25:07.599Z,55.03
2022-08-01T15:28:10.834Z,54.10
2022-08-01T15:31:14.399Z,54.28
2022-08-01T15:34:16.673Z,53.08
2022-08-01T15:37:18.787Z,54.66
2022-08-01T15:40:21.369Z,55.58
2022-08-01T15:43:23.465Z,54.79
2022-08-01T15:46:29.604Z,54.23
2022-08-01T15:49:32.049Z,56.19
2022-08-01T15:52:34.174Z,56.03
2022-08-01T15:55:38.283Z,54.90
2022-08-01T15:58:40.624Z,54.64
2022-08-01T16:01:42.857Z,55.05
2022-08-01T16:04:45.135Z,54.84
2022-08-01T16:07:57.067Z,55.17
2022-08-01T16:11:03.716Z,54.88
2022-08-01T16:14:06.707Z,54.17
2022-08-01T16:17:08.862Z,55.62
2022-08-01T16:20:11.411Z,55.23
2022-08-01T16:23:15.043Z,56.34
2022-08-01T16:26:27.390Z,55.31
2022-08-01T16:29:32.005Z,55.85
2022-08-01T16:32:40.434Z,57.30
2022-08-01T16:35:51.300Z,57.20
2022-08-01T16:38:53.412Z,57.40
2022-08-01T16:41:55.584Z,57.33
2022-08-01T16:44:59.486Z,56.91
2022-08-01T16:48:01.626Z,57.52
2022-08-01T16:51:04.186Z,57.04
2022-08-01T16:54:24.670Z,57.47
2022-08-01T16:57:28.643Z,57.12
2022-08-01T17:00:30.775Z,57.42
2022-08-01T17:03:51.642Z,57.87
2022-08-01T17:06:54.927Z,57.95
2022-08-01T17:09:57.063Z,57.79
2022-08-01T17:12:59.234Z,58.84
2022-08-01T17:16:01.384Z,58.36
2022-08-01T17:19:03.797Z,60.45
2022-08-01T17:22:06.027Z,58.85
2022-08-01T17:25:09.123Z,59.85
2022-08-01T17:28:18.411Z,60.22
2022-08-01T17:31:20.497Z,60.07
2022-08-01T17:34:22.608Z,60.77
2022-08-01T17:37:25.595Z,60.51
2022-08-01T17:40:40.180Z,60.96
2022-08-01T17:43:42.803Z,61.01
2022-08-01T17:46:44.882Z,61.03
2022-08-01T17:49:54.891Z,60.97
2022-08-01T17:52:57.363Z,62.05
2022-08-01T17:56:00.792Z,60.76
2022-08-01T17:59:03.034Z,60.89
2022-08-01T18:02:05.367Z,62.14
2022-08-01T18:05:09.504Z,62.07
2022-08-01T18:08:13.019Z,62.16
2022-08-01T18:11:16.609Z,62.94
2022-08-01T18:14:18.836Z,62.97
2022-08-01T18:17:21.199Z,63.36
2022-08-01T18:20:24.298Z,63.40
2022-08-01T18:23:26.499Z,63.69
2022-08-01T18:26:29.270Z,62.83
2022-08-01T18:29:47.156Z,63.73
2022-08-01T18:32:50.799Z,63.50
2022-08-01T18:35:53.714Z,62.97
2022-08-01T18:38:56.420Z,64.05
2022-08-01T18:42:00.180Z,63.94
2022-08-01T18:45:02.468Z,63.83
2022-08-01T18:48:05.195Z,64.49
2022-08-01T18:51:08.571Z,64.16
2022-08-01T18:54:14.854Z,64.81
2022-08-01T18:57:17.071Z,64.32
2022-08-01T19:00:23.257Z,65.04
2022-08-01T19:03:25.409Z,65.77
2022-08-01T19:06:28.367Z,67.22
2022-08-01T19:09:30.476Z,68.42
2022-08-01T19:12:32.599Z,68.48
2022-08-01T19:15:35.426Z,69.52
2022-08-01T19:18:38.222Z,69.26
2022-08-01T19:21:44.643Z,68.83
2022-08-01T19:24:47.214Z,69.32
2022-08-01T19:27:49.972Z,69.57
2022-08-01T19:30:53.661Z,69.45
2022-08-01T19:33:57.240Z,70.07
2022-08-01T19:36:59.381Z,70.27
2022-08-01T19:40:01.502Z,71.73
2022-08-01T19:43:03.612Z,71.56
2022-08-01T19:46:06.151Z,72.90
2022-08-01T19:49:21.880Z,73.20
2022-08-01T19:52:26.192Z,74.29
2022-08-01T19:55:28.761Z,75.38
2022-08-01T19:58:30.891Z,76.06
2022-08-01T20:01:32.967Z,76.68
2022-08-01T20:04:35.397Z,77.76
2022-08-01T20:07:37.516Z,78.27
2022-08-01T20:10:40.413Z,78.80
2022-08-01T20:13:42.511Z,77.86
2022-08-01T20:16:44.873Z,78.38
2022-08-01T20:19:47.959Z,77.56
2022-08-01T20:22:52.110Z,77.89
2022-08-01T20:25:58.384Z,77.69
2022-08-01T20:29:00.471Z,78.17
2022-08-01T20:32:02.657Z,78.58
2022-08-01T20:35:06.487Z,78.01
2022-08-01T20:38:08.595Z,77.93
2022-08-01T20:41:13.467Z,77.32
2022-08-01T20:44:15.544Z,78.05
2022-08-01T20:47:18.853Z,77.67
2022-08-01T20:50:54.224Z,79.12
2022-08-01T20:53:57.118Z,80.11
2022-08-01T20:57:00.894Z,80.03
2022-08-01T21:00:05.164Z,79.72
2022-08-01T21:03:19.531Z,80.25
2022-08-01T21:06:23.369Z,79.87
2022-08-01T21:09:25.654Z,79.46
2022-08-01T21:12:43.753Z,79.86
2022-08-01T21:15:59.905Z,79.82
2022-08-01T21:19:19.951Z,79.01
2022-08-01T21:22:35.449Z,78.62
2022-08-01T21:25:37.619Z,79.35
2022-08-01T21:28:40.216Z,78.45
2022-08-01T21:32:16.483Z,78.60
2022-08-01T21:35:19.053Z,78.39
2022-08-01T21:38:22.043Z,78.58
2022-08-01T21:41:56.052Z,79.61
2022-08-01T21:44:51.143Z,79.45
2022-08-01T21:47:53.500Z,79.31
2022-08-01T21:51:07.567Z,79.85
2022-08-01T21:54:21.341Z,80.37
2022-08-01T21:57:47.777Z,80.96
2022-08-01T22:00:54.190Z,80.50
2022-08-01T22:03:56.641Z,81.04
2022-08-01T22:06:58.697Z,81.53
2022-08-01T22:10:05.472Z,81.09
2022-08-01T22:13:07.909Z,80.63
2022-08-01T22:16:09.990Z,81.15
2022-08-01T22:19:43.867Z,82.06
2022-08-01T22:22:51.651Z,81.93
2022-08-01T22:25:55.463Z,80.68
2022-08-01T22:28:57.579Z,78.79
2022-08-01T22:31:59.674Z,80.58
2022-08-01T22:35:03.892Z,78.69
2022-08-01T22:38:06.021Z,78.75
2022-08-01T22:41:16.470Z,79.39
2022-08-01T22:44:25.327Z,79.67
2022-08-01T22:47:49.799Z,80.74
2022-08-01T22:51:01.289Z,81.18
2022-08-01T22:54:09.803Z,80.44
2022-08-01T22:57:16.841Z,80.88
2022-08-01T23:00:19.035Z,81.17
2022-08-01T23:03:33.326Z,81.24
2022-08-01T23:06:45.038Z,81.78
2022-08-01T23:09:53.472Z,81.58
2022-08-01T23:12:56.686Z,82.65
2022-08-01T23:16:00.230Z,82.26
2022-08-01T23:19:02.325Z,83.45
2022-08-01T23:22:04.828Z,84.26
2022-08-01T23:25:12.584Z,84.75
2022-08-01T23:28:15.661Z,84.94
2022-08-01T23:31:17.753Z,85.05
2022-08-01T23:34:20.291Z,85.14
2022-08-01T23:37:22.517Z,84.29
2022-08-01T23:40:24.838Z,85.24
2022-08-01T23:43:27.279Z,84.89
2022-08-01T23:46:29.928Z,84.74
2022-08-01T23:49:32.182Z,83.68
2022-08-01T23:52:34.471Z,84.11
2022-08-01T23:55:38.982Z,84.33
2022-08-01T23:58:41.116Z,84.31
